createdAt,value
2022-08-05T00:00:46.717Z,99333.58
2022-08-05T00:03:42.798Z,99336.56
2022-08-05T00:06:35.905Z,99336.39
2022-08-05T00:09:28.405Z,99334.88
2022-08-05T00:12:26.218Z,99333.48
2022-08-05T00:15:56.348Z,99332.15
2022-08-05T00:18:21.422Z,99335.80
2022-08-05T00:20:57.186Z,99336.38
2022-08-05T00:23:53.654Z,99334.53
2022-08-05T00:27:04.828Z,99332.02
2022-08-05T00:30:03.192Z,99334.31
2022-08-05T00:32:55.975Z,99334.20
2022-08-05T00:36:15.989Z,99333.50
2022-08-05T00:38:56.729Z,99330.70
2022-08-05T00:41:55.434Z,99328.59
2022-08-05T00:44:50.745Z,99326.05
2022-08-05T00:47:57.077Z,99325.66
2022-08-05T00:50:56.210Z,99325.92
2022-08-05T00:54:02.547Z,99325.56
2022-08-05T00:56:55.410Z,99320.94
2022-08-05T00:59:49.303Z,99322.04
2022-08-05T01:02:41.593Z,99319.05
2022-08-05T01:05:36.176Z,99320.34
2022-08-05T01:08:40.968Z,99314.78
2022-08-05T01:11:41.011Z,99314.30
2022-08-05T01:14:34.911Z,99312.92
2022-08-05T01:17:39.870Z,99314.84
2022-08-05T01:20:41.912Z,99310.80
2022-08-05T01:24:13.019Z,99302.26
2022-08-05T01:27:23.015Z,99305.49
2022-08-05T01:30:18.867Z,99305.67
2022-08-05T01:33:14.834Z,99304.39
2022-08-05T01:36:16.959Z,99304.42
2022-08-05T01:39:45.840Z,99297.13
2022-08-05T01:42:30.712Z,99297.52
2022-08-05T01:45:25.518Z,99298.89
2022-08-05T01:48:20.325Z,99299.64
2022-08-05T01:51:12.449Z,99300.13
2022-08-05T01:54:09.858Z,99301.02
2022-08-05T01:58:09.881Z,99303.98
2022-08-05T02:00:02.398Z,99301.48
2022-08-05T02:02:59.284Z,99301.29
2022-08-05T02:05:57.850Z,99297.53
2022-08-05T02:08:57.800Z,99295.65
2022-08-05T02:11:48.186Z,99289.39
2022-08-05T02:14:54.744Z,99294.64
2022-08-05T02:18:30.592Z,99294.86
2022-08-05T02:21:15.324Z,99289.58
2022-08-05T02:24:18.322Z,99286.61
2022-08-05T02:27:14.142Z,99285.27
2022-08-05T02:30:10.166Z,99282.55
2022-08-05T02:32:59.181Z,99281.34
2022-08-05T02:35:38.505Z,99274.86
2022-08-05T02:38:38.796Z,99275.38
2022-08-05T02:41:36.366Z,99272.83
2022-08-05T02:44:49.829Z,99276.13
2022-08-05T02:48:07.389Z,99273.34
2022-08-05T02:51:03.750Z,99272.28
2022-08-05T02:54:03.172Z,99269.23
2022-08-05T02:56:58.665Z,99267.86
2022-08-05T02:59:54.155Z,99268.73
2022-08-05T03:02:50.426Z,99266.88
2022-08-05T03:06:55.813Z,99266.63
2022-08-05T03:08:59.727Z,99266.25
2022-08-05T03:11:57.301Z,99262.69
2022-08-05T03:14:50.872Z,99265.30
2022-08-05T03:17:44.869Z,99264.71
2022-08-05T03:20:38.006Z,99261.17
2022-08-05T03:23:39.606Z,99260.26
2022-08-05T03:26:32.895Z,99255.29
2022-08-05T03:29:45.500Z,99255.73
2022-08-05T03:32:37.981Z,99255.56
2022-08-05T03:35:33.779Z,99255.36
2022-08-05T03:38:37.488Z,99258.41
2022-08-05T03:41:33.336Z,99253.66
2022-08-05T03:44:31.022Z,99253.10
2022-08-05T03:47:26.062Z,99251.25
2022-08-05T03:50:30.415Z,99249.31
2022-08-05T03:55:07.137Z,99247.94
2022-08-05T03:56:44.280Z,99251.60
2022-08-05T03:59:46.549Z,99242.48
2022-08-05T04:02:52.277Z,99241.30
2022-08-05T04:05:51.971Z,99241.32
2022-08-05T04:08:45.073Z,99242.29
2022-08-05T04:11:47.419Z,99241.09
2022-08-05T04:14:44.317Z,99241.36
2022-08-05T04:17:56.182Z,99243.55
2022-08-05T04:20:56.207Z,99247.23
2022-08-05T04:24:05.129Z,99245.86
2022-08-05T04:27:00.959Z,99246.70
2022-08-05T04:29:53.869Z,99248.91
2022-08-05T04:32:36.529Z,99249.75
2022-08-05T04:36:16.781Z,99249.73
2022-08-05T04:38:43.338Z,99249.39
2022-08-05T04:41:44.597Z,99249.11
2022-08-05T04:44:38.189Z,99245.79
2022-08-05T04:47:38.580Z,99247.52
2022-08-05T04:50:37.123Z,99242.29
2022-08-05T04:53:39.524Z,99240.69
2022-08-05T04:56:34.748Z,99234.31
2022-08-05T04:59:38.432Z,99233.48
2022-08-05T05:02:41.510Z,99231.97
2022-08-05T05:06:39.034Z,99234.37
2022-08-05T05:08:50.140Z,99233.94
2022-08-05T05:11:53.878Z,99235.66
2022-08-05T05:14:51.321Z,99232.45
2022-08-05T05:17:56.532Z,99231.91
2022-08-05T05:20:50.532Z,99232.95
2022-08-05T05:24:02.900Z,99231.23
2022-08-05T05:26:55.199Z,99234.09
2022-08-05T05:30:05.046Z,99234.55
2022-08-05T05:33:03.584Z,99236.22
2022-08-05T05:36:09.501Z,99238.71
2022-08-05T05:39:03.822Z,99237.70
2022-08-05T05:41:56.730Z,99238.27
2022-08-05T05:44:48.971Z,99239.13
2022-08-05T05:48:05.529Z,99236.89
2022-08-05T05:50:44.352Z,99234.05
2022-08-05T05:53:54.081Z,99229.61
2022-08-05T05:56:49.229Z,99232.98
2022-08-05T05:59:42.306Z,99233.44
2022-08-05T06:02:37.740Z,99228.80
2022-08-05T06:05:31.947Z,99225.55
2022-08-05T06:08:32.264Z,99222.45
2022-08-05T06:11:25.033Z,99226.96
2022-08-05T06:14:11.121Z,99225.75
2022-08-05T06:17:22.237Z,99225.27
2022-08-05T06:20:18.740Z,99222.99
2022-08-05T06:23:12.827Z,99223.08
2022-08-05T06:26:21.272Z,99223.63
2022-08-05T06:29:25.306Z,99223.29
2022-08-05T06:32:28.674Z,99224.45
2022-08-05T06:36:04.150Z,99226.48
2022-08-05T06:38:36.159Z,99223.31
2022-08-05T06:41:29.262Z,99226.48
2022-08-05T06:44:27.029Z,99223.96
2022-08-05T06:48:12.008Z,99223.90
2022-08-05T06:50:31.573Z,99224.67
2022-08-05T06:53:28.217Z,99221.95
2022-08-05T06:56:26.449Z,99221.71
2022-08-05T06:59:19.137Z,99218.14
2022-08-05T07:02:11.272Z,99213.14
2022-08-05T07:04:57.206Z,99214.41
2022-08-05T07:07:50.319Z,99210.52
2022-08-05T07:10:52.507Z,99205.07
2022-08-05T07:14:04.268Z,99201.34
2022-08-05T07:17:58.470Z,99204.26
2022-08-05T07:23:26.141Z,99204.09
2022-08-05T07:26:22.680Z,99204.00
2022-08-05T07:29:17.490Z,99200.98
2022-08-05T07:32:17.701Z,99202.67
2022-08-05T07:36:03.318Z,99203.17
2022-08-05T07:38:32.234Z,99201.23
2022-08-05T07:42:08.289Z,99197.39
2022-08-05T07:44:40.861Z,99198.71
2022-08-05T07:47:42.336Z,99202.84
2022-08-05T07:50:35.123Z,99201.66
2022-08-05T07:53:37.017Z,99202.68
2022-08-05T07:57:01.932Z,99204.79
2022-08-05T07:59:53.582Z,99204.64
2022-08-05T08:03:13.291Z,99202.05
2022-08-05T08:05:47.263Z,99196.69
2022-08-05T08:08:42.026Z,99196.05
2022-08-05T08:11:17.152Z,99195.05
2022-08-05T08:14:19.958Z,99193.67
2022-08-05T08:17:16.108Z,99190.71
2022-08-05T08:20:42.614Z,99190.44
2022-08-05T08:24:01.191Z,99192.45
2022-08-05T08:26:34.884Z,99194.02
2022-08-05T08:30:06.485Z,99192.83
2022-08-05T08:32:41.726Z,99191.52
2022-08-05T08:35:35.226Z,99187.13
2022-08-05T08:38:35.108Z,99184.33
2022-08-05T08:41:52.009Z,99178.59
2022-08-05T08:45:22.578Z,99181.36
2022-08-05T08:48:12.774Z,99177.23
2022-08-05T08:52:02.411Z,99174.00
2022-08-05T08:54:27.169Z,99166.17
2022-08-05T08:57:20.217Z,99166.38
2022-08-05T09:00:16.715Z,99165.24
2022-08-05T09:03:12.569Z,99160.19
2022-08-05T09:06:11.078Z,99165.23
2022-08-05T09:09:05.330Z,99160.42
2022-08-05T09:12:05.966Z,99158.77
2022-08-05T09:15:09.749Z,99156.02
2022-08-05T09:18:01.906Z,99154.66
2022-08-05T09:20:49.229Z,99152.50
2022-08-05T09:23:45.765Z,99148.77
2022-08-05T09:26:39.980Z,99143.64
2022-08-05T09:29:48.020Z,99143.09
2022-08-05T09:32:46.855Z,99137.87
2022-08-05T09:35:41.132Z,99139.29
2022-08-05T09:38:34.191Z,99138.23
2022-08-05T09:41:26.780Z,99135.66
2022-08-05T09:44:38.568Z,99134.48
2022-08-05T09:47:48.370Z,99134.27
2022-08-05T09:50:44.503Z,99133.44
2022-08-05T09:53:54.531Z,99133.77
2022-08-05T09:56:51.790Z,99136.23
2022-08-05T09:59:48.701Z,99135.63
2022-08-05T10:02:40.890Z,99138.17
2022-08-05T10:05:32.727Z,99138.61
2022-08-05T10:08:37.304Z,99142.08
2022-08-05T10:11:35.385Z,99138.70
2022-08-05T10:14:30.186Z,99134.50
2022-08-05T10:17:37.583Z,99130.39
2022-08-05T10:20:33.310Z,99123.41
2022-08-05T10:23:34.562Z,99122.51
2022-08-05T10:26:32.766Z,99118.77
2022-08-05T10:30:06.771Z,99114.24
2022-08-05T10:32:52.513Z,99111.52
2022-08-05T10:35:59.231Z,99108.40
2022-08-05T10:38:59.383Z,99105.16
2022-08-05T10:42:01.263Z,99104.60
2022-08-05T10:44:55.926Z,99099.63
2022-08-05T10:48:29.242Z,99098.33
2022-08-05T10:51:04.947Z,99096.50
2022-08-05T10:54:28.444Z,99095.30
2022-08-05T10:57:32.085Z,99090.84
2022-08-05T11:00:32.158Z,99090.47
2022-08-05T11:03:27.047Z,99090.23
2022-08-05T11:06:17.867Z,99088.63
2022-08-05T11:09:24.464Z,99092.97
2022-08-05T11:12:54.405Z,99089.27
2022-08-05T11:16:00.552Z,99086.51
2022-08-05T11:18:47.107Z,99085.66
2022-08-05T11:21:40.992Z,99088.38
2022-08-05T11:24:50.633Z,99087.90
2022-08-05T11:28:00.899Z,99082.41
2022-08-05T11:31:53.990Z,99083.08
2022-08-05T11:34:50.985Z,99077.96
2022-08-05T11:38:26.423Z,99075.80
2022-08-05T11:41:54.625Z,99067.65
2022-08-05T11:44:54.133Z,99068.07
2022-08-05T11:47:48.467Z,99066.30
2022-08-05T11:50:42.857Z,99065.21
2022-08-05T11:53:41.014Z,99069.61
2022-08-05T11:56:50.465Z,99069.62
2022-08-05T11:59:49.907Z,99070.05
2022-08-05T12:02:36.173Z,99067.42
2022-08-05T12:05:32.309Z,99066.86
2022-08-05T12:08:32.978Z,99063.05
2022-08-05T12:11:28.101Z,99065.16
2022-08-05T12:14:40.809Z,99062.89
2022-08-05T12:18:04.025Z,99055.80
2022-08-05T12:20:50.801Z,99050.80
2022-08-05T12:23:52.591Z,99045.17
2022-08-05T12:26:47.849Z,99050.20
2022-08-05T12:29:40.085Z,99048.66
2022-08-05T12:32:35.409Z,99047.22
2022-08-05T12:35:39.545Z,99049.02
2022-08-05T12:38:32.478Z,99049.29
2022-08-05T12:41:34.394Z,99048.89
2022-08-05T12:44:33.201Z,99045.53
2022-08-05T12:47:06.340Z,99048.02
2022-08-05T12:50:16.332Z,99044.48
2022-08-05T12:53:09.238Z,99043.45
2022-08-05T12:56:34.460Z,99036.75
2022-08-05T13:00:08.715Z,99032.24
2022-08-05T13:02:40.125Z,99030.95
2022-08-05T13:05:37.877Z,99028.56
2022-08-05T13:08:32.811Z,99026.18
2022-08-05T13:12:02.539Z,99022.88
2022-08-05T13:14:46.365Z,99019.44
2022-08-05T13:17:59.283Z,99018.90
2022-08-05T13:20:51.901Z,99015.64
2022-08-05T13:23:50.822Z,99017.00
2022-08-05T13:26:50.704Z,99016.38
2022-08-05T13:29:59.636Z,99012.66
2022-08-05T13:32:56.523Z,99012.02
2022-08-05T13:35:51.776Z,99005.59
2022-08-05T13:38:44.232Z,99007.17
2022-08-05T13:41:42.788Z,99008.69
2022-08-05T13:44:14.904Z,99005.31
2022-08-05T13:47:10.702Z,99005.08
2022-08-05T13:50:23.125Z,99004.50
2022-08-05T13:53:16.733Z,99002.89
2022-08-05T13:56:18.330Z,98999.09
2022-08-05T13:59:20.254Z,98993.88
2022-08-05T14:02:19.977Z,98997.20
2022-08-05T14:05:15.451Z,98993.58
2022-08-05T14:08:21.307Z,98992.86
2022-08-05T14:11:22.058Z,98993.32
2022-08-05T14:14:14.460Z,98990.34
2022-08-05T14:17:17.031Z,98985.62
2022-08-05T14:20:12.221Z,98987.09
2022-08-05T14:23:10.629Z,98987.20
2022-08-05T14:26:07.267Z,98987.02
2022-08-05T14:29:15.963Z,98984.29
2022-08-05T14:32:16.024Z,98980.70
2022-08-05T14:35:20.527Z,98976.70
2022-08-05T14:38:31.788Z,98976.17
2022-08-05T14:41:25.592Z,98971.90
2022-08-05T14:44:20.283Z,98972.62
2022-08-05T14:47:14.192Z,98974.36
2022-08-05T14:50:14.181Z,98971.47
2022-08-05T14:53:10.866Z,98968.33
2022-08-05T14:56:03.262Z,98965.88
2022-08-05T14:58:56.961Z,98961.13
2022-08-05T15:01:49.231Z,98954.95
2022-08-05T15:04:34.750Z,98954.58
2022-08-05T15:08:06.347Z,98956.81
2022-08-05T15:10:39.405Z,98955.04
2022-08-05T15:13:28.602Z,98952.89
2022-08-05T15:16:37.533Z,98952.41
2022-08-05T15:19:32.595Z,98945.37
2022-08-05T15:22:26.636Z,98946.27
2022-08-05T15:25:23.501Z,98940.25
2022-08-05T15:28:32.523Z,98936.52
2022-08-05T15:31:23.628Z,98934.56
2022-08-05T15:34:32.234Z,98935.77
2022-08-05T15:38:08.419Z,98932.56
2022-08-05T15:41:01.274Z,98931.80
2022-08-05T15:43:52.194Z,98928.21
2022-08-05T15:46:47.104Z,98930.32
2022-08-05T15:49:56.720Z,98928.24
2022-08-05T15:52:52.832Z,98932.13
2022-08-05T15:56:02.908Z,98926.91
2022-08-05T15:58:56.704Z,98930.19
2022-08-05T16:01:52.427Z,98928.16
2022-08-05T16:04:45.716Z,98930.97
2022-08-05T16:07:37.383Z,98926.13
2022-08-05T16:10:12.947Z,98923.52
2022-08-05T16:13:05.545Z,98926.99
2022-08-05T16:15:47.698Z,98924.80
2022-08-05T16:18:51.882Z,98923.60
2022-08-05T16:22:00.298Z,98923.08
2022-08-05T16:24:55.158Z,98919.53
2022-08-05T16:28:04.943Z,98923.69
2022-08-05T16:31:10.692Z,98923.64
2022-08-05T16:34:02.969Z,98918.29
2022-08-05T16:36:50.907Z,98918.66
2022-08-05T16:40:05.867Z,98918.56
2022-08-05T16:42:47.804Z,98922.38
2022-08-05T16:46:05.136Z,98923.48
2022-08-05T16:48:55.609Z,98925.63
2022-08-05T16:51:51.344Z,98923.59
2022-08-05T16:54:48.997Z,98922.15
2022-08-05T16:57:53.756Z,98922.70
2022-08-05T17:00:53.857Z,98925.37
2022-08-05T17:03:47.333Z,98923.52
2022-08-05T17:06:41.840Z,98920.53
2022-08-05T17:09:57.200Z,98928.63
2022-08-05T17:12:51.822Z,98928.27
2022-08-05T17:15:49.669Z,98929.02
2022-08-05T17:18:37.398Z,98932.03
2022-08-05T17:21:36.306Z,98930.27
2022-08-05T17:24:38.724Z,98928.87
2022-08-05T17:27:34.006Z,98929.23
2022-08-05T17:30:28.327Z,98932.75
2022-08-05T17:33:22.143Z,98935.05
2022-08-05T17:36:33.898Z,98937.80
2022-08-05T17:39:33.504Z,98935.19
2022-08-05T17:42:32.040Z,98944.23
2022-08-05T17:45:29.616Z,98941.59
2022-08-05T17:48:30.621Z,98943.11
2022-08-05T17:51:23.295Z,98945.39
2022-08-05T17:54:15.771Z,98945.09
2022-08-05T17:57:15.821Z,98941.90
2022-08-05T18:00:14.260Z,98945.68
2022-08-05T18:03:06.520Z,98945.84
2022-08-05T18:06:04.064Z,98945.85
2022-08-05T18:08:56.515Z,98945.40
2022-08-05T18:11:52.380Z,98946.45
2022-08-05T18:14:44.711Z,98951.59
2022-08-05T18:17:59.099Z,98952.66
2022-08-05T18:20:34.884Z,98948.81
2022-08-05T18:23:30.282Z,98948.63
2022-08-05T18:26:33.107Z,98950.65
2022-08-05T18:29:39.952Z,98951.20
2022-08-05T18:32:33.644Z,98950.96
2022-08-05T18:35:49.499Z,98950.11
2022-08-05T18:38:38.991Z,98951.76
2022-08-05T18:41:58.004Z,98954.09
2022-08-05T18:44:33.166Z,98962.11
2022-08-05T18:47:27.709Z,98962.46
2022-08-05T18:50:42.127Z,98960.63
2022-08-05T18:53:42.979Z,98965.92
2022-08-05T18:56:38.517Z,98965.18
2022-08-05T18:59:42.907Z,98965.60
2022-08-05T19:02:27.812Z,98969.59
2022-08-05T19:06:11.483Z,98971.14
2022-08-05T19:08:35.871Z,98970.45
2022-08-05T19:11:59.146Z,98976.56
2022-08-05T19:15:00.468Z,98982.87
2022-08-05T19:18:08.689Z,98983.98
2022-08-05T19:20:52.792Z,98986.13
2022-08-05T19:24:07.890Z,98989.02
2022-08-05T19:26:58.348Z,98990.95
2022-08-05T19:29:50.522Z,98991.74
2022-08-05T19:32:45.376Z,98988.69
2022-08-05T19:35:56.335Z,98990.48
2022-08-05T19:38:53.000Z,98987.83
2022-08-05T19:42:06.515Z,98984.27
2022-08-05T19:44:58.366Z,98984.98
2022-08-05T19:47:55.826Z,98988.70
2022-08-05T19:50:47.921Z,98992.89
2022-08-05T19:54:03.389Z,98992.91
2022-08-05T19:56:55.366Z,98995.85
2022-08-05T19:59:55.577Z,98993.98
2022-08-05T20:03:00.289Z,98994.58
2022-08-05T20:05:57.970Z,98991.47
2022-08-05T20:08:51.698Z,98992.08
2022-08-05T20:11:48.198Z,98995.27
2022-08-05T20:14:40.522Z,98992.93
2022-08-05T20:17:35.021Z,98992.47
2022-08-05T20:20:31.037Z,98997.63
2022-08-05T20:23:40.362Z,98999.53
2022-08-05T20:26:38.253Z,99000.35
2022-08-05T20:29:31.091Z,98992.55
2022-08-05T20:32:23.633Z,98995.85
2022-08-05T20:35:16.091Z,99000.56
2022-08-05T20:38:08.608Z,98999.83
2022-08-05T20:41:04.642Z,98996.86
2022-08-05T20:44:17.752Z,98999.53
2022-08-05T20:47:13.756Z,98996.84
2022-08-05T20:50:11.528Z,98996.92
2022-08-05T20:53:03.921Z,98995.52
2022-08-05T20:56:09.821Z,98995.85
2022-08-05T20:59:14.136Z,98995.58
2022-08-05T21:02:12.945Z,98995.48
2022-08-05T21:05:12.968Z,98999.38
2022-08-05T21:08:06.688Z,99001.14
2022-08-05T21:10:58.879Z,98997.95
2022-08-05T21:13:56.625Z,99000.40
2022-08-05T21:16:49.126Z,99002.61
2022-08-05T21:19:47.629Z,99000.05
2022-08-05T21:22:43.228Z,99000.46
2022-08-05T21:25:35.503Z,98998.80
2022-08-05T21:28:30.829Z,99001.61
2022-08-05T21:31:23.314Z,99009.56
2022-08-05T21:34:18.006Z,99010.52
2022-08-05T21:37:10.549Z,99011.95
2022-08-05T21:40:05.738Z,99011.20
2022-08-05T21:42:59.013Z,99008.84
2022-08-05T21:45:57.745Z,99012.79
2022-08-05T21:48:56.641Z,99007.50
2022-08-05T21:52:22.676Z,99008.97
2022-08-05T21:54:41.468Z,99014.34
2022-08-05T21:57:34.728Z,99013.71
2022-08-05T22:00:21.404Z,99011.95
2022-08-05T22:02:53.682Z,99012.89
2022-08-05T22:05:48.771Z,99011.55
2022-08-05T22:08:42.453Z,99013.84
2022-08-05T22:11:35.780Z,99017.20
2022-08-05T22:14:35.236Z,99017.11
2022-08-05T22:17:30.676Z,99020.14
2022-08-05T22:20:25.719Z,99021.41
2022-08-05T22:24:02.842Z,99019.02
2022-08-05T22:27:06.705Z,99012.17
2022-08-05T22:29:59.270Z,99015.73
2022-08-05T22:32:51.353Z,99013.98
2022-08-05T22:35:48.659Z,99010.25
2022-08-05T22:38:41.563Z,99010.94
2022-08-05T22:42:10.739Z,99013.14
2022-08-05T22:44:56.331Z,99016.83
2022-08-05T22:47:49.885Z,99012.31
2022-08-05T22:50:56.019Z,99010.31
2022-08-05T22:53:50.049Z,99013.30
2022-08-05T22:56:42.597Z,99014.62
2022-08-05T22:59:45.914Z,99013.23
2022-08-05T23:02:46.865Z,99011.15
2022-08-05T23:05:39.610Z,99011.06
2022-08-05T23:08:32.447Z,99004.79
2022-08-05T23:11:26.529Z,98994.03
2022-08-05T23:14:22.381Z,98990.14
2022-08-05T23:17:34.267Z,98988.55
2022-08-05T23:20:29.105Z,98991.88
2022-08-05T23:23:22.393Z,98992.89
2022-08-05T23:26:14.917Z,98995.59
2022-08-05T23:29:08.301Z,98998.07
2022-08-05T23:32:03.499Z,98991.42
2022-08-05T23:34:56.877Z,98991.14
2022-08-05T23:37:49.160Z,98993.31
2022-08-05T23:40:34.616Z,98995.66
2022-08-05T23:44:03.705Z,98999.36
2022-08-05T23:46:39.263Z,98996.79
2022-08-05T23:49:33.915Z,98990.55
2022-08-05T23:52:30.797Z,98983.88
2022-08-05T23:55:24.693Z,98982.86
2022-08-05T23:58:31.807Z,98984.25
